Time;durP1;ratioP1;P1;durP2;ratioP2;P2;SDS_P1;SDS_P2;PMS_P1;PMS_P2;Temp;Humidity;BMP_temperature;BMP_pressure;BME280_temperature;BME280_humidity;BME280_pressure;Samples;Min_cycle;Max_cycle;Signal;HPM_P1;HPM_P2
2021/01/18 00:02:02;;;;;;;31.88;17.08;;;3.00;99.90;;;;;;5077328;28;20047;-75
2021/01/18 00:04:28;;;;;;;24.88;14.18;;;3.00;99.90;;;;;;5076883;28;20036;-75
2021/01/18 00:06:54;;;;;;;34.95;18.23;;;2.90;99.90;;;;;;5076270;28;20024;-76
2021/01/18 00:09:22;;;;;;;28.10;15.85;;;3.00;99.90;;;;;;5075646;28;20028;-75
2021/01/18 00:11:47;;;;;;;38.05;19.38;;;3.00;99.90;;;;;;5075132;28;20050;-75
2021/01/18 00:14:15;;;;;;;31.95;17.23;;;3.00;99.90;;;;;;5060616;28;20032;-75
2021/01/18 00:16:41;;;;;;;29.63;16.17;;;3.00;99.90;;;;;;5076000;28;20081;-75
2021/01/18 00:19:09;;;;;;;27.30;15.68;;;3.00;99.90;;;;;;5075069;28;20028;-75
2021/01/18 00:21:35;;;;;;;28.02;15.38;;;3.00;99.90;;;;;;5076082;28;20032;-75
2021/01/18 00:24:05;;;;;;;30.98;15.75;;;3.00;99.90;;;;;;5076879;28;20046;-75
2021/01/18 00:26:31;;;;;;;31.08;15.95;;;3.00;99.90;;;;;;5061031;28;20036;-75
2021/01/18 00:29:01;;;;;;;28.35;15.40;;;3.10;99.90;;;;;;5057575;28;20033;-74
2021/01/18 00:31:29;;;;;;;25.98;14.68;;;3.00;99.90;;;;;;5078006;28;20111;-75
2021/01/18 00:33:55;;;;;;;21.15;12.05;;;3.10;99.90;;;;;;5074908;28;20028;-75
2021/01/18 00:36:21;;;;;;;10.75;6.40;;;3.10;99.90;;;;;;5075169;28;20046;-75
2021/01/18 00:38:48;;;;;;;23.05;11.73;;;3.10;99.90;;;;;;5077006;28;20119;-74
2021/01/18 00:41:14;;;;;;;20.65;11.27;;;3.00;99.90;;;;;;5075263;28;20046;-74
2021/01/18 00:43:44;;;;;;;23.35;11.20;;;3.00;99.90;;;;;;5076591;28;20028;-75
2021/01/18 00:46:10;;;;;;;24.88;12.45;;;3.10;99.90;;;;;;5071413;28;20032;-74
2021/01/18 00:48:38;;;;;;;20.50;11.00;;;3.00;99.90;;;;;;5075970;28;20792;-74
2021/01/18 00:51:06;;;;;;;21.98;12.10;;;3.00;99.90;;;;;;5075375;28;20020;-75
2021/01/18 00:53:34;;;;;;;22.67;11.77;;;3.00;99.90;;;;;;5075123;28;20674;-74
2021/01/18 00:56:02;;;;;;;21.13;11.45;;;3.00;99.90;;;;;;5076274;28;20032;-74
2021/01/18 00:58:27;;;;;;;23.23;12.18;;;3.00;99.90;;;;;;5082585;28;20085;-74
2021/01/18 01:00:53;;;;;;;19.90;11.13;;;3.00;99.90;;;;;;5071146;28;20028;-74
2021/01/18 01:03:21;;;;;;;22.02;11.60;;;3.00;99.90;;;;;;5076175;28;20045;-74
2021/01/18 01:05:47;;;;;;;18.02;9.88;;;3.00;99.90;;;;;;5077342;28;20043;-74
2021/01/18 01:08:12;;;;;;;18.58;10.35;;;3.00;99.90;;;;;;5076900;28;20085;-74
2021/01/18 01:10:38;;;;;;;17.30;8.40;;;3.00;99.90;;;;;;5074559;28;20111;-74
2021/01/18 01:13:07;;;;;;;16.45;8.55;;;3.00;99.90;;;;;;5074308;28;20036;-74
2021/01/18 01:15:35;;;;;;;13.85;7.70;;;3.00;99.90;;;;;;5074193;28;20029;-74
2021/01/18 01:18:09;;;;;;;16.30;8.35;;;3.00;99.90;;;;;;5076426;28;20673;-74
2021/01/18 01:20:34;;;;;;;12.55;6.50;;;3.10;99.90;;;;;;5076701;28;20597;-74
2021/01/18 01:23:05;;;;;;;14.30;7.28;;;3.10;99.90;;;;;;5076736;28;20038;-74
2021/01/18 01:25:35;;;;;;;12.05;5.97;;;3.20;99.90;;;;;;5065018;28;20039;-74
2021/01/18 01:28:03;;;;;;;11.27;6.55;;;3.20;99.90;;;;;;5075361;28;20479;-74
2021/01/18 01:30:33;;;;;;;12.15;6.90;;;3.30;99.90;;;;;;5077394;28;20226;-74
2021/01/18 01:32:59;;;;;;;12.27;6.75;;;3.30;99.90;;;;;;5075188;28;20029;-74
2021/01/18 01:35:33;;;;;;;15.60;7.82;;;3.30;99.90;;;;;;5077101;28;20535;-73
2021/01/18 01:38:00;;;;;;;14.10;7.60;;;3.30;99.90;;;;;;5070456;28;20373;-73
2021/01/18 01:40:28;;;;;;;13.50;6.93;;;3.30;99.90;;;;;;5075094;28;20477;-74
2021/01/18 01:42:56;;;;;;;15.27;6.57;;;3.30;99.90;;;;;;5074246;28;20063;-73
2021/01/18 01:45:26;;;;;;;12.02;5.90;;;3.20;99.90;;;;;;5083045;28;20028;-73
2021/01/18 01:48:00;;;;;;;8.77;4.68;;;3.20;99.90;;;;;;5091597;28;20481;-74
2021/01/18 01:50:31;;;;;;;9.07;4.53;;;3.20;99.90;;;;;;5087420;28;20519;-74
2021/01/18 01:53:15;;;;;;;10.02;5.22;;;3.30;99.90;;;;;;5058506;28;20645;-73
2021/01/18 01:55:40;;;;;;;10.23;5.10;;;3.30;99.90;;;;;;5091752;28;20032;-73
2021/01/18 01:58:07;;;;;;;9.35;4.80;;;3.30;99.90;;;;;;5059584;28;20039;-73
2021/01/18 02:00:39;;;;;;;11.20;5.38;;;3.30;99.90;;;;;;5073530;28;20578;-73
2021/01/18 02:03:33;;;;;;;9.45;5.43;;;3.30;99.90;;;;;;5064254;28;20533;-73
2021/01/18 02:05:59;;;;;;;11.13;5.72;;;3.40;99.90;;;;;;5065279;28;20534;-73
2021/01/18 02:08:24;;;;;;;7.95;4.93;;;3.40;99.90;;;;;;5070284;28;20028;-73
2021/01/18 02:10:57;;;;;;;9.35;4.63;;;3.30;99.90;;;;;;5081382;28;20840;-73
2021/01/18 02:13:43;;;;;;;9.30;4.78;;;3.40;99.90;;;;;;5072521;28;20025;-73
2021/01/18 02:16:20;;;;;;;10.10;4.93;;;3.40;99.90;;;;;;5074857;28;21966;-73
2021/01/18 02:18:54;;;;;;;8.77;5.13;;;3.40;99.90;;;;;;5074533;28;20026;-73
2021/01/18 02:21:48;;;;;;;10.88;5.20;;;3.30;99.90;;;;;;5062114;28;20024;-73
2021/01/18 02:24:51;;;;;;;9.57;5.57;;;3.30;99.90;;;;;;5075729;28;20032;-73
2021/01/18 02:27:20;;;;;;;11.95;6.15;;;3.30;99.90;;;;;;5079156;28;20030;-74
2021/01/18 02:29:49;;;;;;;9.68;4.70;;;3.30;99.90;;;;;;5087033;28;20057;-73
2021/01/18 02:32:29;;;;;;;9.73;5.45;;;3.30;99.90;;;;;;5088837;28;20032;-73
2021/01/18 02:35:26;;;;;;;10.95;5.35;;;3.30;99.90;;;;;;5089734;28;20105;-73
2021/01/18 02:38:15;;;;;;;7.75;4.75;;;3.40;99.90;;;;;;5082716;28;20044;-73
2021/01/18 02:41:02;;;;;;;8.52;5.18;;;3.30;99.90;;;;;;5072642;28;20032;-73
2021/01/18 02:43:36;;;;;;;7.45;4.68;;;3.30;99.90;;;;;;5071794;28;20036;-73
2021/01/18 02:46:07;;;;;;;8.18;4.65;;;3.30;99.90;;;;;;5063225;28;20020;-73
2021/01/18 02:48:32;;;;;;;10.68;4.78;;;3.30;99.90;;;;;;5059784;28;20073;-73
2021/01/18 02:51:03;;;;;;;8.45;4.18;;;3.30;99.90;;;;;;5053165;28;20032;-73
2021/01/18 02:53:31;;;;;;;8.05;5.00;;;3.30;99.90;;;;;;5088816;28;20032;-73
2021/01/18 02:55:59;;;;;;;7.00;4.30;;;3.30;99.90;;;;;;5084577;28;20054;-73
2021/01/18 02:58:25;;;;;;;7.72;4.72;;;3.30;99.90;;;;;;5089252;28;21918;-73
2021/01/18 03:01:12;;;;;;;8.18;4.50;;;3.30;99.90;;;;;;5069057;28;20049;-73
2021/01/18 03:03:48;;;;;;;7.25;4.30;;;3.30;99.90;;;;;;5076420;28;20484;-73
2021/01/18 03:06:47;;;;;;;6.95;3.55;;;3.30;99.90;;;;;;5072221;28;20551;-73
2021/01/18 03:09:19;;;;;;;7.35;4.13;;;3.20;99.90;;;;;;5065179;28;20071;-73
2021/01/18 03:11:48;;;;;;;7.65;3.95;;;3.20;99.90;;;;;;5064128;28;20111;-73
2021/01/18 03:14:41;;;;;;;6.47;3.88;;;3.20;99.90;;;;;;5090818;28;20110;-73
2021/01/18 03:17:07;;;;;;;;;;;3.20;99.90;;;;;;5079058;28;20123;-73
2021/01/18 03:19:44;;;;;;;6.22;3.50;;;3.20;99.90;;;;;;5094687;28;20420;-73
2021/01/18 03:22:22;;;;;;;5.00;3.00;;;3.20;99.90;;;;;;5076342;28;20031;-73
2021/01/18 03:24:48;;;;;;;6.05;3.35;;;3.20;99.90;;;;;;5084993;28;20031;-73
2021/01/18 03:27:19;;;;;;;8.35;3.70;;;3.20;99.90;;;;;;5067781;28;20029;-73
2021/01/18 03:29:49;;;;;;;5.88;3.35;;;3.20;99.90;;;;;;5078724;28;20178;-72
2021/01/18 03:32:19;;;;;;;6.85;3.85;;;3.20;99.90;;;;;;5084720;28;20025;-72
2021/01/18 03:34:47;;;;;;;7.03;3.63;;;3.20;99.90;;;;;;5087671;28;20040;-72
2021/01/18 03:37:13;;;;;;;7.53;4.45;;;3.20;99.90;;;;;;5087027;28;20111;-73
2021/01/18 03:39:41;;;;;;;6.80;3.45;;;3.20;99.90;;;;;;5073384;28;20750;-72
2021/01/18 03:42:10;;;;;;;7.07;4.03;;;3.20;99.90;;;;;;5072901;28;20082;-72
2021/01/18 03:44:36;;;;;;;6.30;3.65;;;3.20;99.90;;;;;;5072107;28;20036;-72
2021/01/18 03:47:02;;;;;;;6.50;3.97;;;3.20;99.90;;;;;;5073224;28;20464;-73
2021/01/18 03:49:29;;;;;;;7.25;4.20;;;3.20;99.90;;;;;;5083859;28;20610;-73
2021/01/18 03:51:57;;;;;;;7.80;4.38;;;3.20;99.90;;;;;;5093243;28;20441;-73
2021/01/18 03:54:28;;;;;;;11.80;5.13;;;3.20;99.90;;;;;;5093072;28;20579;-73
2021/01/18 03:56:53;;;;;;;10.00;5.00;;;3.20;99.90;;;;;;5093473;28;20528;-73
2021/01/18 03:59:19;;;;;;;8.25;4.47;;;3.20;99.90;;;;;;5094367;28;20107;-73
2021/01/18 04:01:50;;;;;;;8.45;4.68;;;3.20;99.90;;;;;;5092575;28;20354;-72
2021/01/18 04:04:15;;;;;;;9.77;5.43;;;3.20;99.90;;;;;;5091959;28;20032;-72
2021/01/18 04:06:41;;;;;;;9.70;5.30;;;3.20;99.90;;;;;;5079193;28;20035;-73
2021/01/18 04:09:09;;;;;;;9.68;5.63;;;3.20;99.90;;;;;;5090248;28;20032;-73
2021/01/18 04:11:35;;;;;;;8.93;5.18;;;3.10;99.90;;;;;;5088448;28;20029;-73
2021/01/18 04:14:01;;;;;;;9.27;5.20;;;3.10;99.90;;;;;;5077819;28;20039;-73
2021/01/18 04:16:31;;;;;;;10.70;5.60;;;3.10;99.90;;;;;;5076891;28;20718;-73
2021/01/18 04:18:59;;;;;;;9.35;4.93;;;3.10;99.90;;;;;;5076860;28;20058;-73
2021/01/18 04:21:25;;;;;;;12.05;5.95;;;3.20;99.90;;;;;;5076821;28;20109;-73
2021/01/18 04:23:52;;;;;;;9.07;5.28;;;3.10;99.90;;;;;;5075903;28;20440;-73
2021/01/18 04:26:21;;;;;;;11.50;5.95;;;3.10;99.90;;;;;;5082824;28;20028;-74
2021/01/18 04:28:51;;;;;;;9.35;5.72;;;3.10;99.90;;;;;;5093847;28;20486;-74
2021/01/18 04:31:21;;;;;;;12.88;6.38;;;3.10;99.90;;;;;;5080608;28;20438;-73
2021/01/18 04:33:49;;;;;;;12.90;6.53;;;3.10;99.90;;;;;;5077733;28;20035;-73
2021/01/18 04:36:15;;;;;;;12.68;6.47;;;3.10;99.90;;;;;;5075770;28;20407;-73
2021/01/18 04:38:41;;;;;;;11.70;6.22;;;3.10;99.90;;;;;;5077679;28;20020;-73
2021/01/18 04:41:14;;;;;;;12.73;6.85;;;3.10;99.90;;;;;;5077900;28;20481;-73
2021/01/18 04:43:46;;;;;;;12.93;6.53;;;3.10;99.90;;;;;;5070130;28;20094;-73
2021/01/18 04:46:12;;;;;;;10.20;5.80;;;3.20;99.90;;;;;;5075327;28;20024;-73
2021/01/18 04:48:41;;;;;;;12.95;7.47;;;3.10;99.90;;;;;;5063661;28;20024;-73
2021/01/18 04:51:09;;;;;;;12.30;6.80;;;3.10;99.90;;;;;;5075265;28;20047;-73
2021/01/18 04:53:37;;;;;;;12.73;7.07;;;3.10;99.90;;;;;;5073648;28;20048;-73
2021/01/18 04:56:27;;;;;;;14.35;7.20;;;3.10;99.90;;;;;;5075099;28;20034;-74
2021/01/18 04:58:57;;;;;;;12.68;7.25;;;3.10;99.90;;;;;;5081491;28;20029;-74
2021/01/18 05:01:28;;;;;;;14.75;6.68;;;3.00;99.90;;;;;;5052999;28;20051;-73
2021/01/18 05:04:05;;;;;;;15.18;7.38;;;3.10;99.90;;;;;;5075401;28;20116;-74
2021/01/18 05:06:34;;;;;;;13.57;7.13;;;3.10;99.90;;;;;;5076641;28;20141;-74
2021/01/18 05:09:29;;;;;;;12.90;7.03;;;3.00;99.90;;;;;;5075284;28;20021;-74
2021/01/18 05:11:58;;;;;;;16.05;6.57;;;3.00;99.90;;;;;;5074546;28;20545;-74
2021/01/18 05:14:26;;;;;;;18.33;7.40;;;3.00;99.90;;;;;;5074855;28;20028;-74
2021/01/18 05:16:56;;;;;;;11.05;6.45;;;2.90;99.90;;;;;;5053195;28;20031;-74
2021/01/18 05:19:26;;;;;;;13.48;6.82;;;3.00;99.90;;;;;;5075308;28;20136;-74
2021/01/18 05:21:51;;;;;;;15.85;6.95;;;2.90;99.90;;;;;;5074512;28;20465;-74
2021/01/18 05:24:22;;;;;;;15.00;7.00;;;2.90;99.90;;;;;;5062784;28;20040;-74
2021/01/18 05:27:09;;;;;;;17.15;7.75;;;2.90;99.90;;;;;;5075932;28;20121;-74
2021/01/18 05:29:37;;;;;;;15.00;7.05;;;2.90;99.90;;;;;;5053118;28;20048;-74
2021/01/18 05:32:08;;;;;;;12.50;6.65;;;2.90;99.90;;;;;;5074814;28;20388;-74
2021/01/18 05:34:39;;;;;;;15.63;8.00;;;2.90;99.90;;;;;;5069416;28;20070;-74
2021/01/18 05:37:04;;;;;;;12.95;6.68;;;2.90;99.90;;;;;;5076085;28;20054;-74
2021/01/18 05:39:33;;;;;;;15.65;8.10;;;2.90;99.90;;;;;;5072987;28;20032;-75
2021/01/18 05:41:59;;;;;;;11.68;6.70;;;2.90;99.90;;;;;;5058326;28;20125;-74
2021/01/18 05:44:37;;;;;;;15.82;7.40;;;2.90;99.90;;;;;;5073994;28;20495;-74
2021/01/18 05:47:06;;;;;;;14.02;6.82;;;2.90;99.90;;;;;;5074361;28;20055;-74
2021/01/18 05:49:46;;;;;;;12.43;6.82;;;2.90;99.90;;;;;;5059017;28;20051;-74
2021/01/18 05:52:30;;;;;;;14.73;7.10;;;2.90;99.90;;;;;;5075912;28;20028;-75
2021/01/18 05:55:20;;;;;;;11.77;6.75;;;2.90;99.90;;;;;;5071462;28;20032;-74
2021/01/18 05:57:47;;;;;;;15.63;6.78;;;2.90;99.90;;;;;;5073686;28;20607;-74
2021/01/18 06:00:22;;;;;;;14.27;7.80;;;2.90;99.90;;;;;;5061701;28;20040;-74
2021/01/18 06:02:47;;;;;;;17.98;7.32;;;2.90;99.90;;;;;;5072637;28;20044;-74
2021/01/18 06:05:16;;;;;;;12.27;7.43;;;2.90;99.90;;;;;;5041309;28;20032;-74
2021/01/18 06:07:42;;;;;;;17.70;8.13;;;3.00;99.90;;;;;;5050492;28;20024;-74
2021/01/18 06:10:10;;;;;;;12.85;7.57;;;3.00;99.90;;;;;;5041938;28;20086;-74
2021/01/18 06:12:38;;;;;;;14.20;7.88;;;3.00;99.90;;;;;;5060552;28;20178;-74
2021/01/18 06:15:08;;;;;;;15.05;8.50;;;3.00;99.90;;;;;;5074627;28;20055;-74
2021/01/18 06:17:37;;;;;;;16.42;8.73;;;3.00;99.90;;;;;;5076559;28;20035;-74
2021/01/18 06:20:04;;;;;;;14.60;8.50;;;3.10;99.90;;;;;;5076328;28;20024;-74
2021/01/18 06:22:29;;;;;;;13.43;8.43;;;3.10;99.90;;;;;;5072828;28;21924;-74
2021/01/18 06:25:13;;;;;;;15.27;8.55;;;3.10;99.90;;;;;;5072068;28;20046;-74
2021/01/18 06:27:41;;;;;;;15.18;8.18;;;3.10;99.90;;;;;;5064759;28;21907;-74
2021/01/18 06:30:21;;;;;;;13.70;8.23;;;3.10;99.90;;;;;;5074666;28;20044;-74
2021/01/18 06:32:53;;;;;;;14.15;7.78;;;3.10;99.90;;;;;;5068711;28;20141;-74
2021/01/18 06:35:29;;;;;;;16.52;7.50;;;3.10;99.90;;;;;;5076374;28;20032;-74
2021/01/18 06:38:04;;;;;;;15.27;8.27;;;3.10;99.90;;;;;;5072435;28;20093;-74
2021/01/18 06:40:37;;;;;;;17.58;8.85;;;3.00;99.90;;;;;;5052242;28;20856;-74
2021/01/18 06:43:03;;;;;;;17.35;9.20;;;3.00;99.90;;;;;;5074147;28;20038;-74
2021/01/18 06:45:33;;;;;;;15.80;7.93;;;3.00;99.90;;;;;;5080643;28;20489;-74
2021/01/18 06:48:00;;;;;;;17.20;9.07;;;3.00;99.90;;;;;;5063540;28;20071;-74
2021/01/18 06:50:40;;;;;;;13.43;8.02;;;3.00;99.90;;;;;;5072630;28;20020;-74
2021/01/18 06:53:18;;;;;;;17.35;9.05;;;2.90;99.90;;;;;;5074194;28;20029;-74
2021/01/18 06:55:59;;;;;;;17.00;8.95;;;2.90;99.90;;;;;;5074488;28;20085;-74
2021/01/18 06:58:52;;;;;;;18.48;9.73;;;3.00;99.90;;;;;;5073606;28;20028;-74
2021/01/18 07:01:37;;;;;;;18.23;10.18;;;3.00;99.90;;;;;;5081956;28;20043;-74
2021/01/18 07:04:06;;;;;;;21.35;11.18;;;3.00;99.90;;;;;;5090322;28;20035;-74
2021/01/18 07:06:40;;;;;;;22.40;10.32;;;3.00;99.90;;;;;;5082242;28;20024;-74
2021/01/18 07:09:21;;;;;;;20.33;10.32;;;3.00;99.90;;;;;;5083685;28;20028;-74
2021/01/18 07:12:05;;;;;;;18.17;9.75;;;3.00;99.90;;;;;;5075173;28;20086;-74
2021/01/18 07:14:31;;;;;;;19.08;10.25;;;3.00;99.90;;;;;;5088140;28;20028;-74
2021/01/18 07:17:06;;;;;;;19.52;10.68;;;3.10;99.90;;;;;;5082453;28;20067;-73
2021/01/18 07:19:41;;;;;;;18.25;10.10;;;3.00;99.90;;;;;;5089272;28;20019;-72
2021/01/18 07:22:14;;;;;;;15.25;9.57;;;3.00;99.90;;;;;;5089895;28;20032;-74
2021/01/18 07:24:45;;;;;;;16.90;9.88;;;3.00;99.90;;;;;;5088032;28;20138;-74
2021/01/18 07:27:10;;;;;;;14.90;8.63;;;2.90;99.90;;;;;;5093816;28;20062;-74
2021/01/18 07:29:37;;;;;;;17.55;9.70;;;3.00;99.90;;;;;;5091017;28;20085;-74
2021/01/18 07:32:07;;;;;;;14.90;8.57;;;2.90;99.90;;;;;;5090522;28;20690;-74
2021/01/18 07:34:36;;;;;;;15.05;8.85;;;2.90;99.90;;;;;;5093477;28;20531;-74
2021/01/18 07:37:10;;;;;;;16.08;9.40;;;3.00;99.90;;;;;;5071684;28;20476;-74
2021/01/18 07:39:40;;;;;;;14.13;8.90;;;3.00;99.90;;;;;;5090403;28;20047;-74
2021/01/18 07:42:32;;;;;;;17.23;9.10;;;3.00;99.90;;;;;;5093479;28;20024;-74
2021/01/18 07:45:19;;;;;;;14.65;8.23;;;3.00;99.90;;;;;;5084611;28;20067;-74
2021/01/18 07:48:14;;;;;;;17.58;8.95;;;3.00;99.90;;;;;;5082720;28;20017;-71
2021/01/18 07:50:41;;;;;;;19.08;9.20;;;3.00;99.90;;;;;;5088467;28;20079;-74
2021/01/18 07:53:09;;;;;;;17.63;8.50;;;2.90;99.90;;;;;;5090988;28;20171;-74
2021/01/18 07:55:35;;;;;;;16.80;9.07;;;2.90;99.90;;;;;;5076512;28;20028;-74
2021/01/18 07:58:15;;;;;;;14.75;7.95;;;3.00;99.90;;;;;;5093415;28;20109;-74
2021/01/18 08:00:43;;;;;;;17.52;9.55;;;2.90;99.90;;;;;;5087492;28;20034;-74
2021/01/18 08:03:14;;;;;;;17.25;8.52;;;2.90;99.90;;;;;;5089078;28;20024;-74
2021/01/18 08:05:41;;;;;;;19.23;8.80;;;2.90;99.90;;;;;;5089912;28;20036;-74
2021/01/18 08:08:15;;;;;;;17.17;8.52;;;3.00;99.90;;;;;;5087813;28;20039;-74
2021/01/18 08:11:02;;;;;;;13.73;8.73;;;3.00;99.90;;;;;;5087151;28;20452;-73
2021/01/18 08:13:53;;;;;;;16.95;9.00;;;3.00;99.90;;;;;;5091502;28;20047;-74
2021/01/18 08:16:22;;;;;;;11.70;7.00;;;3.00;99.90;;;;;;5092583;28;20048;-74
2021/01/18 08:18:59;;;;;;;17.40;8.05;;;3.00;99.90;;;;;;5089528;28;20038;-74
2021/01/18 08:21:34;;;;;;;17.17;8.15;;;3.10;99.90;;;;;;5092139;28;20012;-73
2021/01/18 08:24:03;;;;;;;14.70;8.07;;;3.00;99.90;;;;;;5093927;28;20028;-73
2021/01/18 08:26:49;;;;;;;16.52;7.90;;;3.10;99.90;;;;;;5091971;28;20032;-74
2021/01/18 08:29:46;;;;;;;15.23;8.07;;;3.10;99.90;;;;;;5087685;28;20039;-75
2021/01/18 08:32:38;;;;;;;16.70;8.35;;;3.20;99.90;;;;;;5086787;28;20163;-74
2021/01/18 08:35:24;;;;;;;14.05;7.82;;;3.20;99.90;;;;;;5080080;28;20410;-74
2021/01/18 08:38:06;;;;;;;17.48;8.63;;;3.20;99.90;;;;;;5092702;28;20032;-73
2021/01/18 08:40:45;;;;;;;16.33;7.55;;;3.20;99.90;;;;;;5090833;28;20032;-74
2021/01/18 08:43:15;;;;;;;17.95;8.18;;;3.20;99.90;;;;;;5090784;28;20020;-74
2021/01/18 08:45:45;;;;;;;13.13;7.30;;;3.20;99.90;;;;;;5092498;28;20024;-74
2021/01/18 08:48:21;;;;;;;15.75;7.78;;;3.20;99.90;;;;;;5089565;28;20042;-72
2021/01/18 08:50:57;;;;;;;15.15;8.85;;;3.30;99.90;;;;;;5088819;28;20508;-75
2021/01/18 08:53:40;;;;;;;16.90;8.20;;;3.30;99.90;;;;;;5087613;28;20096;-74
2021/01/18 08:56:09;;;;;;;13.35;7.40;;;3.20;99.90;;;;;;5085050;28;20092;-75
2021/01/18 08:58:42;;;;;;;15.70;7.80;;;3.30;99.90;;;;;;5062090;28;20054;-74
2021/01/18 09:01:30;;;;;;;16.58;7.25;;;3.30;99.90;;;;;;5090900;28;20082;-75
2021/01/18 09:04:05;;;;;;;12.70;7.75;;;3.40;99.90;;;;;;5087252;28;20028;-74
2021/01/18 09:06:33;;;;;;;14.35;7.75;;;3.40;99.90;;;;;;5073959;28;20028;-74
2021/01/18 09:09:07;;;;;;;15.93;7.60;;;3.40;99.90;;;;;;5087100;28;20031;-74
2021/01/18 09:11:35;;;;;;;14.30;7.45;;;3.40;99.90;;;;;;5092031;28;20023;-74
2021/01/18 09:14:04;;;;;;;15.25;7.22;;;3.40;99.90;;;;;;5089255;28;20045;-74
2021/01/18 09:16:32;;;;;;;16.02;7.85;;;3.40;99.90;;;;;;5076226;28;20023;-75
2021/01/18 09:19:09;;;;;;;14.63;7.07;;;3.40;99.90;;;;;;5077478;28;20568;-75
2021/01/18 09:21:35;;;;;;;14.18;7.50;;;3.40;99.90;;;;;;5077674;28;20039;-74
2021/01/18 09:24:09;;;;;;;13.13;7.57;;;3.40;99.90;;;;;;5090651;28;20024;-75
2021/01/18 09:26:35;;;;;;;13.60;6.68;;;3.50;99.90;;;;;;5059015;28;20119;-75
2021/01/18 09:29:01;;;;;;;16.63;6.78;;;3.50;99.90;;;;;;5090948;28;20210;-73
2021/01/18 09:31:28;;;;;;;12.93;7.10;;;3.50;99.90;;;;;;5090909;28;20035;-73
2021/01/18 09:33:57;;;;;;;12.75;6.97;;;3.50;99.90;;;;;;5070143;28;20077;-75
2021/01/18 09:36:23;;;;;;;12.90;7.03;;;3.60;99.90;;;;;;5080103;28;20035;-75
2021/01/18 09:38:51;;;;;;;13.45;6.43;;;3.60;99.90;;;;;;5088525;28;20517;-74
2021/01/18 09:41:17;;;;;;;13.20;6.85;;;3.60;99.90;;;;;;5073183;28;20034;-75
2021/01/18 09:43:48;;;;;;;15.35;6.93;;;3.60;99.90;;;;;;5084569;28;20024;-75
2021/01/18 09:46:19;;;;;;;16.75;7.35;;;3.70;99.90;;;;;;5092979;28;20454;-75
2021/01/18 09:48:54;;;;;;;14.80;7.38;;;3.70;99.90;;;;;;5083871;28;20031;-75
2021/01/18 09:51:20;;;;;;;10.98;6.70;;;3.70;99.90;;;;;;5078299;28;20024;-75
2021/01/18 09:53:50;;;;;;;12.75;6.75;;;3.80;99.90;;;;;;5061775;28;20028;-75
2021/01/18 09:56:16;;;;;;;12.07;6.80;;;3.70;99.90;;;;;;5073540;28;20467;-75
2021/01/18 09:58:45;;;;;;;14.55;6.97;;;3.80;99.90;;;;;;5087819;28;20024;-75
2021/01/18 10:01:12;;;;;;;14.27;6.95;;;3.80;99.90;;;;;;5070353;28;20017;-75
2021/01/18 10:03:40;;;;;;;13.32;6.95;;;3.80;99.90;;;;;;5072463;28;20029;-75
2021/01/18 10:06:15;;;;;;;14.80;7.35;;;3.80;99.90;;;;;;5079467;28;20074;-75
2021/01/18 10:08:44;;;;;;;17.05;7.60;;;3.80;99.90;;;;;;5067996;28;20085;-75
2021/01/18 10:11:10;;;;;;;15.85;7.32;;;3.90;99.90;;;;;;5073349;28;20078;-75
2021/01/18 10:13:36;;;;;;;15.98;7.30;;;3.90;99.90;;;;;;5083839;28;20489;-75
2021/01/18 10:16:08;;;;;;;16.08;7.50;;;3.90;99.90;;;;;;5077359;28;20031;-75
2021/01/18 10:18:37;;;;;;;;;;;4.00;99.90;;;;;;5088044;28;20031;-75
2021/01/18 10:21:03;;;;;;;13.48;6.38;;;4.10;99.90;;;;;;5087343;28;19912;-75
2021/01/18 10:23:35;;;;;;;16.13;6.85;;;4.10;99.90;;;;;;5088144;28;20359;-75
2021/01/18 10:26:19;;;;;;;14.18;7.13;;;4.20;99.90;;;;;;5074092;28;20159;-75
2021/01/18 10:28:53;;;;;;;12.55;7.43;;;4.20;99.90;;;;;;5087696;28;20393;-74
2021/01/18 10:31:22;;;;;;;13.73;7.13;;;4.30;99.90;;;;;;5074828;28;20032;-74
2021/01/18 10:34:10;;;;;;;16.45;7.13;;;4.30;99.90;;;;;;5071148;28;20019;-75
2021/01/18 10:36:41;;;;;;;12.38;6.78;;;4.40;99.90;;;;;;5056968;28;20069;-75
2021/01/18 10:39:09;;;;;;;9.97;6.30;;;4.40;99.90;;;;;;5091506;28;20032;-75
2021/01/18 10:41:38;;;;;;;12.18;6.32;;;4.40;99.90;;;;;;5072064;28;20498;-75
2021/01/18 10:44:09;;;;;;;12.55;7.10;;;4.50;99.90;;;;;;5085378;28;20028;-75
2021/01/18 10:46:37;;;;;;;9.60;4.88;;;4.50;99.90;;;;;;5086981;28;20107;-75
2021/01/18 10:49:03;;;;;;;14.93;6.40;;;4.60;99.90;;;;;;5071910;28;20024;-75
2021/01/18 10:51:33;;;;;;;12.90;7.22;;;4.60;99.90;;;;;;5088312;28;20282;-75
2021/01/18 10:54:00;;;;;;;13.70;6.85;;;4.60;99.90;;;;;;5084923;28;20036;-75
2021/01/18 10:56:33;;;;;;;12.00;6.55;;;4.60;99.90;;;;;;5085914;28;20408;-75
2021/01/18 10:59:03;;;;;;;9.27;6.00;;;4.60;99.90;;;;;;5068861;28;20514;-75
2021/01/18 11:01:29;;;;;;;13.60;6.82;;;4.60;99.90;;;;;;5088591;28;20039;-74
2021/01/18 11:04:02;;;;;;;11.38;5.90;;;4.60;99.90;;;;;;5089040;28;20020;-74
2021/01/18 11:06:27;;;;;;;10.63;6.15;;;4.60;99.90;;;;;;5057241;28;20185;-75
2021/01/18 11:08:53;;;;;;;11.40;6.43;;;4.70;99.90;;;;;;5059920;28;20115;-75
2021/01/18 11:11:24;;;;;;;12.32;6.60;;;4.70;99.90;;;;;;5075998;28;20368;-75
2021/01/18 11:14:02;;;;;;;13.35;6.45;;;4.70;99.90;;;;;;5075095;28;20062;-76
2021/01/18 11:16:27;;;;;;;10.23;5.70;;;4.70;99.90;;;;;;5080873;28;20023;-75
2021/01/18 11:19:02;;;;;;;12.13;5.72;;;4.70;99.90;;;;;;5068828;28;20465;-76
2021/01/18 11:21:28;;;;;;;13.73;6.30;;;4.70;99.90;;;;;;5095125;28;20020;-75
2021/01/18 11:23:54;;;;;;;10.95;5.40;;;4.70;99.90;;;;;;5086958;28;20028;-75
2021/01/18 11:26:20;;;;;;;10.65;5.82;;;4.70;99.90;;;;;;5089282;28;20384;-76
2021/01/18 11:28:48;;;;;;;10.80;5.43;;;4.70;99.90;;;;;;5088268;28;20032;-74
2021/01/18 11:31:16;;;;;;;11.32;5.88;;;4.70;99.90;;;;;;5091424;28;20027;-75
2021/01/18 11:33:44;;;;;;;11.73;5.50;;;4.70;99.90;;;;;;5085893;28;20043;-75
2021/01/18 11:36:12;;;;;;;12.25;5.38;;;4.70;99.90;;;;;;5092042;28;20028;-75
2021/01/18 11:38:39;;;;;;;11.02;5.95;;;4.80;99.90;;;;;;5084658;28;20098;-75
2021/01/18 11:41:07;;;;;;;9.75;5.25;;;4.80;99.90;;;;;;5087748;28;20044;-75
2021/01/18 11:43:35;;;;;;;8.85;4.70;;;4.70;99.90;;;;;;5090722;28;20072;-75
2021/01/18 11:46:05;;;;;;;10.48;5.25;;;4.70;99.90;;;;;;5090213;28;20035;-75
2021/01/18 11:48:30;;;;;;;12.20;5.53;;;4.80;99.90;;;;;;5088608;28;20120;-76
2021/01/18 11:50:56;;;;;;;10.35;5.22;;;4.80;99.90;;;;;;5090637;28;20103;-75
2021/01/18 11:53:24;;;;;;;12.93;6.28;;;4.60;99.90;;;;;;5086704;28;20035;-75
2021/01/18 11:55:54;;;;;;;11.70;5.70;;;4.50;99.90;;;;;;5090273;28;20110;-75
2021/01/18 11:58:25;;;;;;;12.88;6.30;;;4.60;99.90;;;;;;5089723;28;20051;-75
2021/01/18 12:00:53;;;;;;;12.10;7.10;;;4.70;99.90;;;;;;5087758;28;20113;-75
2021/01/18 12:03:18;;;;;;;13.52;7.30;;;4.60;99.90;;;;;;5087480;28;20115;-75
2021/01/18 12:05:46;;;;;;;15.55;7.97;;;4.70;99.90;;;;;;5088617;28;20626;-75
2021/01/18 12:08:12;;;;;;;15.48;7.80;;;4.70;99.90;;;;;;5086719;28;20050;-75
2021/01/18 12:10:39;;;;;;;17.17;8.60;;;4.80;99.90;;;;;;5092035;28;20087;-75
2021/01/18 12:13:08;;;;;;;15.00;8.48;;;4.80;99.90;;;;;;5090435;28;20063;-75
2021/01/18 12:15:33;;;;;;;13.50;7.90;;;4.80;99.90;;;;;;5093454;28;20039;-75
2021/01/18 12:17:59;;;;;;;16.35;8.60;;;4.80;99.90;;;;;;5078827;28;20027;-75
2021/01/18 12:20:25;;;;;;;15.90;8.60;;;4.80;99.90;;;;;;5087169;28;20021;-75
2021/01/18 12:22:55;;;;;;;14.82;8.10;;;4.70;99.90;;;;;;5068269;28;20060;-75
2021/01/18 12:25:25;;;;;;;16.88;8.90;;;4.70;99.90;;;;;;5068530;28;20023;-75
2021/01/18 12:27:55;;;;;;;16.35;9.18;;;4.80;99.90;;;;;;5090772;28;20050;-75
2021/01/18 12:30:22;;;;;;;17.92;8.80;;;4.80;99.90;;;;;;5090774;28;20111;-75
2021/01/18 12:32:50;;;;;;;14.77;8.75;;;4.80;99.90;;;;;;5088402;28;20115;-75
2021/01/18 12:35:16;;;;;;;16.08;8.52;;;4.80;99.90;;;;;;5079378;28;20036;-75
2021/01/18 12:37:41;;;;;;;14.98;8.20;;;4.80;99.90;;;;;;5090526;28;20034;-75
2021/01/18 12:40:13;;;;;;;13.68;8.20;;;4.80;99.90;;;;;;5090834;28;20032;-75
2021/01/18 12:42:47;;;;;;;16.50;8.38;;;4.90;99.90;;;;;;5080093;28;20056;-74
2021/01/18 12:45:17;;;;;;;16.73;8.50;;;4.90;99.90;;;;;;5071799;28;20136;-74
2021/01/18 12:47:43;;;;;;;15.95;8.85;;;4.80;99.90;;;;;;5089047;28;20469;-74
2021/01/18 12:50:09;;;;;;;12.30;7.63;;;4.80;99.90;;;;;;5082387;28;20085;-75
2021/01/18 12:52:36;;;;;;;14.02;8.45;;;4.90;99.90;;;;;;5090512;28;20050;-74
2021/01/18 12:55:06;;;;;;;14.37;8.60;;;4.80;99.90;;;;;;4736488;28;10000909;-74
2021/01/18 12:57:34;;;;;;;15.48;8.20;;;4.80;99.90;;;;;;5085099;28;20030;-74
2021/01/18 13:00:02;;;;;;;12.23;7.35;;;4.80;99.90;;;;;;5086449;28;20462;-74
2021/01/18 13:02:31;;;;;;;14.85;7.82;;;4.80;99.90;;;;;;5088629;28;20089;-74
2021/01/18 13:04:57;;;;;;;13.48;7.35;;;4.90;99.90;;;;;;5084310;28;20028;-74
2021/01/18 13:07:25;;;;;;;18.90;7.50;;;4.90;99.90;;;;;;5081790;28;20042;-74
2021/01/18 13:09:51;;;;;;;12.98;7.30;;;4.90;99.90;;;;;;5084888;28;20101;-75